Capitol Logistics 2031

Operating for MET



KMCI
Kansas City International Airport
Kansas City, Missouri
KLAX
Los Angeles International Airport
Los Angeles, California

Route Details

Aircraft Information
Group: North America Fleet
Types: B738,B752,B762,B763
Route Data
Demand: V
Distance: 1184nm
Duration: 3h 29m
Recm'd Route: WL5 SLN KD45W ALS TBC JASSE Q90 DNERO ANJLL4
Origin Wx: KMCI 270653Z 30005KT 10SM CLR 09/08 A2991 RMK AO2 SLP125 T00940083
Dest. Wx: KLAX 270653Z 25004KT 10SM FEW015 BKN020 17/12 A3003 RMK AO2 SLP165 T01670117
Notes: OPF METRO AIR VIRTUAL

Financial History
Total Freight: 426,157lbs
Average Load: 85,231lbs/flt
Fuel Used: 162,898lbs
Avg. Fuel Used: 32,580lbs/flt
Fuel Expense: $152,285
Avg. Fuel Expense: $30,457
Avg. Fuel Cost: $0.94/lbs
Total Gross Income: $635,867
Pilot Pay: $875
Total Expenses: $73,996
Total Revenue: $406,524
Average Revenue: $127,173.46